createdAt,value
2023-04-27T00:00:48.108Z,10.22
2023-04-27T00:03:14.574Z,10.13
2023-04-27T00:05:41.169Z,10.14
2023-04-27T00:08:07.525Z,10.15
2023-04-27T00:10:33.814Z,10.16
2023-04-27T00:13:00.044Z,10.19
2023-04-27T00:15:26.294Z,10.20
2023-04-27T00:17:52.709Z,10.17
2023-04-27T00:20:19.015Z,10.08
2023-04-27T00:22:45.241Z,10.05
2023-04-27T00:25:11.488Z,10.03
2023-04-27T00:27:37.744Z,10.11
2023-04-27T00:30:04.059Z,10.18
2023-04-27T00:32:30.370Z,10.20
2023-04-27T00:34:56.707Z,10.20
2023-04-27T00:37:22.983Z,10.18
2023-04-27T00:39:49.222Z,10.21
2023-04-27T00:42:15.458Z,10.15
2023-04-27T00:44:41.681Z,10.11
2023-04-27T00:47:07.978Z,9.92
2023-04-27T00:49:34.242Z,9.89
2023-04-27T00:52:01.569Z,9.78
2023-04-27T00:54:27.806Z,9.75
2023-04-27T00:56:54.039Z,9.79
2023-04-27T00:59:20.292Z,9.76
2023-04-27T01:01:46.660Z,9.71
2023-04-27T01:04:13.091Z,9.67
2023-04-27T01:06:39.527Z,9.55
2023-04-27T01:09:05.857Z,9.35
2023-04-27T01:11:32.180Z,9.36
2023-04-27T01:13:58.481Z,9.28
2023-04-27T01:16:24.837Z,9.23
2023-04-27T01:18:51.104Z,9.18
2023-04-27T01:21:17.355Z,9.18
2023-04-27T01:23:43.624Z,9.15
2023-04-27T01:26:09.906Z,9.15
2023-04-27T01:28:36.185Z,9.11
2023-04-27T01:31:02.494Z,9.01
2023-04-27T01:33:28.793Z,8.95
2023-04-27T01:35:55.128Z,8.92
2023-04-27T01:38:21.435Z,8.88
2023-04-27T01:40:47.696Z,8.84
2023-04-27T01:43:13.963Z,8.86
2023-04-27T01:45:40.286Z,8.74
2023-04-27T01:48:06.658Z,8.79
2023-04-27T01:50:32.948Z,8.62
2023-04-27T01:52:59.197Z,8.61
2023-04-27T01:55:25.450Z,8.63
2023-04-27T01:57:51.713Z,8.72
2023-04-27T02:00:18.021Z,8.77
2023-04-27T02:02:44.429Z,8.66
2023-04-27T02:05:10.804Z,8.72
2023-04-27T02:07:37.067Z,8.66
2023-04-27T02:10:03.373Z,8.68
2023-04-27T02:12:29.617Z,8.61
2023-04-27T02:14:55.890Z,8.58
2023-04-27T02:17:22.227Z,8.52
2023-04-27T02:19:48.485Z,8.52
2023-04-27T02:22:14.740Z,8.50
2023-04-27T02:24:40.995Z,8.49
2023-04-27T02:27:07.249Z,8.45
2023-04-27T02:29:33.982Z,8.39
2023-04-27T02:32:00.658Z,8.42
2023-04-27T02:34:26.945Z,8.27
2023-04-27T02:36:53.206Z,8.27
2023-04-27T02:39:19.461Z,8.20
2023-04-27T02:41:45.713Z,8.19
2023-04-27T02:44:12.060Z,8.23
2023-04-27T02:46:38.356Z,8.21
2023-04-27T02:49:04.663Z,8.17
2023-04-27T02:51:30.915Z,8.19
2023-04-27T02:53:57.183Z,8.21
2023-04-27T02:56:23.509Z,8.10
2023-04-27T02:58:49.852Z,8.14
2023-04-27T03:01:16.165Z,8.05
2023-04-27T03:03:42.597Z,7.99
2023-04-27T03:06:09.809Z,7.98
2023-04-27T03:08:36.142Z,7.99
2023-04-27T03:11:02.405Z,8.03
2023-04-27T03:13:28.684Z,7.97
2023-04-27T03:15:54.963Z,8.02
2023-04-27T03:18:21.236Z,7.93
2023-04-27T03:20:47.504Z,7.92
2023-04-27T03:23:13.770Z,7.96
2023-04-27T03:25:40.024Z,7.97
2023-04-27T03:28:06.289Z,8.04
2023-04-27T03:30:32.688Z,7.97
2023-04-27T03:32:59.014Z,7.94
2023-04-27T03:35:25.355Z,7.91
2023-04-27T03:37:51.601Z,7.89
2023-04-27T03:40:17.898Z,7.84
2023-04-27T03:42:44.289Z,7.84
2023-04-27T03:45:10.559Z,7.81
2023-04-27T03:47:36.860Z,7.64
2023-04-27T03:50:03.124Z,7.67
2023-04-27T03:52:29.422Z,7.65
2023-04-27T03:54:55.743Z,7.61
2023-04-27T03:57:21.972Z,7.56
2023-04-27T03:59:48.262Z,7.64
2023-04-27T04:02:14.634Z,7.65
2023-04-27T04:04:41.109Z,7.58
2023-04-27T04:07:07.595Z,7.58
2023-04-27T04:09:33.846Z,7.44
2023-04-27T04:12:00.121Z,7.47
2023-04-27T04:14:26.364Z,7.44
2023-04-27T04:16:52.632Z,7.36
2023-04-27T04:19:20.741Z,7.40
2023-04-27T04:21:48.340Z,7.43
2023-04-27T04:24:14.689Z,7.36
2023-04-27T04:26:40.940Z,7.30
2023-04-27T04:29:08.861Z,7.37
2023-04-27T04:31:36.537Z,7.32
2023-04-27T04:34:02.804Z,7.31
2023-04-27T04:36:29.059Z,7.41
2023-04-27T04:38:55.309Z,7.45
2023-04-27T04:41:21.580Z,7.58
2023-04-27T04:43:47.808Z,7.58
2023-04-27T04:46:14.098Z,7.56
2023-04-27T04:48:40.420Z,7.53
2023-04-27T04:51:06.674Z,7.62
2023-04-27T04:53:32.913Z,7.66
2023-04-27T04:55:59.200Z,7.71
2023-04-27T04:58:25.449Z,7.58
2023-04-27T05:00:51.702Z,7.71
2023-04-27T05:03:18.155Z,7.50
2023-04-27T05:05:44.531Z,7.59
2023-04-27T05:08:10.766Z,7.68
2023-04-27T05:10:37.006Z,7.73
2023-04-27T05:13:05.258Z,7.79
2023-04-27T05:15:32.833Z,7.74
2023-04-27T05:17:59.162Z,7.72
2023-04-27T05:20:26.418Z,7.70
2023-04-27T05:22:52.684Z,7.58
2023-04-27T05:25:18.930Z,7.55
2023-04-27T05:27:45.192Z,7.61
2023-04-27T05:30:11.508Z,7.61
2023-04-27T05:32:37.881Z,7.67
2023-04-27T05:35:04.228Z,7.68
2023-04-27T05:37:30.518Z,7.71
2023-04-27T05:39:56.779Z,7.70
2023-04-27T05:42:23.032Z,7.67
2023-04-27T05:44:49.494Z,7.76
2023-04-27T05:47:15.853Z,7.77
2023-04-27T05:49:42.122Z,7.79
2023-04-27T05:52:08.383Z,7.83
2023-04-27T05:54:34.647Z,7.87
2023-04-27T05:57:00.882Z,7.93
2023-04-27T05:59:27.153Z,7.99
2023-04-27T06:01:53.460Z,8.03
2023-04-27T06:04:21.339Z,8.02
2023-04-27T06:06:48.072Z,8.09
2023-04-27T06:09:14.639Z,8.16
2023-04-27T06:11:41.340Z,8.22
2023-04-27T06:14:08.695Z,8.29
2023-04-27T06:16:35.255Z,8.37
2023-04-27T06:19:01.802Z,8.44
2023-04-27T06:21:28.351Z,8.48
2023-04-27T06:23:54.767Z,8.50
2023-04-27T06:26:21.234Z,8.56
2023-04-27T06:28:47.666Z,8.69
2023-04-27T06:31:14.181Z,8.84
2023-04-27T06:33:40.654Z,8.98
2023-04-27T06:36:07.119Z,9.11
2023-04-27T06:38:33.572Z,9.31
2023-04-27T06:41:00.245Z,9.53
2023-04-27T06:43:26.835Z,9.76
2023-04-27T06:45:53.317Z,9.94
2023-04-27T06:48:19.821Z,10.11
2023-04-27T06:50:46.260Z,10.26
2023-04-27T06:53:14.710Z,10.29
2023-04-27T06:55:43.448Z,10.43
2023-04-27T06:58:10.747Z,10.50
2023-04-27T07:00:37.128Z,10.73
2023-04-27T07:03:03.669Z,10.92
2023-04-27T07:05:30.059Z,10.99
2023-04-27T07:07:56.342Z,11.13
2023-04-27T07:10:22.877Z,11.34
2023-04-27T07:12:49.108Z,11.44
2023-04-27T07:15:15.384Z,11.58
2023-04-27T07:17:41.752Z,11.69
2023-04-27T07:20:08.079Z,11.73
2023-04-27T07:22:34.354Z,11.79
2023-04-27T07:25:00.604Z,11.88
2023-04-27T07:27:26.838Z,12.03
2023-04-27T07:29:53.134Z,12.11
2023-04-27T07:32:19.385Z,12.18
2023-04-27T07:34:53.461Z,12.22
2023-04-27T07:37:20.566Z,12.31
2023-04-27T07:39:46.881Z,12.34
2023-04-27T07:42:13.174Z,12.31
2023-04-27T07:44:39.409Z,12.46
2023-04-27T07:47:05.676Z,12.60
2023-04-27T07:49:31.918Z,12.61
2023-04-27T07:51:58.193Z,12.76
2023-04-27T07:54:24.506Z,12.91
2023-04-27T07:56:50.775Z,13.07
2023-04-27T07:59:17.174Z,13.25
2023-04-27T08:01:43.581Z,13.29
2023-04-27T08:04:10.039Z,13.38
2023-04-27T08:06:37.089Z,13.48
2023-04-27T08:09:03.890Z,13.53
2023-04-27T08:11:30.268Z,13.70
2023-04-27T08:13:56.641Z,13.79
2023-04-27T08:16:23.151Z,13.78
2023-04-27T08:18:49.541Z,13.82
2023-04-27T08:21:15.930Z,13.94
2023-04-27T08:23:42.416Z,14.05
2023-04-27T08:26:08.768Z,14.20
2023-04-27T08:28:35.070Z,14.32
2023-04-27T08:31:01.380Z,14.35
2023-04-27T08:33:27.652Z,14.42
2023-04-27T08:35:53.946Z,14.27
2023-04-27T08:38:20.222Z,14.40
2023-04-27T08:40:46.499Z,14.11
2023-04-27T08:43:12.955Z,13.84
2023-04-27T08:45:39.260Z,14.04
2023-04-27T08:48:05.556Z,13.57
2023-04-27T08:50:31.879Z,13.89
2023-04-27T08:52:58.120Z,13.84
2023-04-27T08:55:24.398Z,14.03
2023-04-27T08:57:50.697Z,14.30
2023-04-27T09:00:16.937Z,14.58
2023-04-27T09:02:43.304Z,14.54
2023-04-27T09:05:09.706Z,14.50
2023-04-27T09:07:36.078Z,14.57
2023-04-27T09:10:02.417Z,14.91
2023-04-27T09:12:28.655Z,15.12
2023-04-27T09:14:54.951Z,15.43
2023-04-27T09:17:21.281Z,15.53
2023-04-27T09:19:47.568Z,15.68
2023-04-27T09:22:13.826Z,15.99
2023-04-27T09:24:40.062Z,16.27
2023-04-27T09:27:06.315Z,16.47
2023-04-27T09:29:32.610Z,16.82
2023-04-27T09:31:59.031Z,16.97
2023-04-27T09:34:25.327Z,17.00
2023-04-27T09:36:51.586Z,17.00
2023-04-27T09:39:17.862Z,16.84
2023-04-27T09:41:44.124Z,16.96
2023-04-27T09:44:10.424Z,17.04
2023-04-27T09:46:36.749Z,17.14
2023-04-27T09:49:03.033Z,17.18
2023-04-27T09:51:29.292Z,16.67
2023-04-27T09:53:55.547Z,16.75
2023-04-27T09:56:21.821Z,16.73
2023-04-27T09:58:48.070Z,16.72
2023-04-27T10:01:14.378Z,16.71
2023-04-27T10:03:40.722Z,16.67
2023-04-27T10:06:07.017Z,16.56
2023-04-27T10:08:33.298Z,15.95
2023-04-27T10:10:59.544Z,16.10
2023-04-27T10:13:25.790Z,16.30
2023-04-27T10:15:52.057Z,16.52
2023-04-27T10:18:18.314Z,16.71
2023-04-27T10:20:44.692Z,16.85
2023-04-27T10:23:10.959Z,16.95
2023-04-27T10:25:37.242Z,16.96
2023-04-27T10:28:03.548Z,16.98
2023-04-27T10:30:29.906Z,16.98
2023-04-27T10:32:56.381Z,16.69
2023-04-27T10:35:22.735Z,16.92
2023-04-27T10:37:49.018Z,16.91
2023-04-27T10:40:15.347Z,17.03
2023-04-27T10:42:41.670Z,16.89
2023-04-27T10:45:07.937Z,17.17
2023-04-27T10:47:34.230Z,16.61
2023-04-27T10:50:00.504Z,16.89
2023-04-27T10:52:26.778Z,17.10
2023-04-27T10:54:53.948Z,17.46
2023-04-27T10:57:20.205Z,17.43
2023-04-27T10:59:46.460Z,17.16
2023-04-27T11:02:12.804Z,17.25
2023-04-27T11:04:39.443Z,17.39
2023-04-27T11:07:06.839Z,17.31
2023-04-27T11:09:33.137Z,17.42
2023-04-27T11:11:59.626Z,17.13
2023-04-27T11:14:26.088Z,16.96
2023-04-27T11:16:52.580Z,17.03
2023-04-27T11:19:19.001Z,17.03
2023-04-27T11:21:45.435Z,17.17
2023-04-27T11:24:13.838Z,17.22
2023-04-27T11:26:41.618Z,17.18
2023-04-27T11:29:08.525Z,17.32
2023-04-27T11:31:35.067Z,17.46
2023-04-27T11:34:01.636Z,17.15
2023-04-27T11:36:28.093Z,17.36
2023-04-27T11:38:54.599Z,17.30
2023-04-27T11:41:20.874Z,17.36
2023-04-27T11:43:48.404Z,17.15
2023-04-27T11:46:14.752Z,17.33
2023-04-27T11:48:41.152Z,17.29
2023-04-27T11:51:08.815Z,17.24
2023-04-27T11:53:35.281Z,17.45
2023-04-27T11:56:01.754Z,17.63
2023-04-27T11:58:28.132Z,17.75
2023-04-27T12:00:54.596Z,17.39
2023-04-27T12:03:21.308Z,17.59
2023-04-27T12:05:47.836Z,17.84
2023-04-27T12:08:14.237Z,17.87
2023-04-27T12:10:40.710Z,18.00
2023-04-27T12:13:07.126Z,17.91
2023-04-27T12:15:33.446Z,18.41
2023-04-27T12:17:59.786Z,18.51
2023-04-27T12:20:26.123Z,18.56
2023-04-27T12:22:52.427Z,18.05
2023-04-27T12:25:18.847Z,18.71
2023-04-27T12:27:45.443Z,18.93
2023-04-27T12:30:11.704Z,19.49
2023-04-27T12:32:38.002Z,19.67
2023-04-27T12:35:04.354Z,19.75
2023-04-27T12:37:30.599Z,19.83
2023-04-27T12:39:56.849Z,20.06
2023-04-27T12:42:23.118Z,20.38
2023-04-27T12:44:49.370Z,20.48
2023-04-27T12:47:27.782Z,20.26
2023-04-27T12:50:01.855Z,20.18
2023-04-27T12:52:28.134Z,20.02
2023-04-27T12:54:54.403Z,20.61
2023-04-27T12:57:20.684Z,20.44
2023-04-27T12:59:46.960Z,20.11
2023-04-27T13:02:13.251Z,19.93
2023-04-27T13:04:39.762Z,20.01
2023-04-27T13:07:06.184Z,19.91
2023-04-27T13:09:32.469Z,19.95
2023-04-27T13:12:01.412Z,19.79
2023-04-27T13:14:28.015Z,19.76
2023-04-27T13:16:54.270Z,19.24
2023-04-27T13:19:20.536Z,19.33
2023-04-27T13:21:46.800Z,19.63
2023-04-27T13:24:13.222Z,19.34
2023-04-27T13:26:40.507Z,19.52
2023-04-27T13:29:06.824Z,19.13
2023-04-27T13:31:33.117Z,19.55
2023-04-27T13:33:59.380Z,19.38
2023-04-27T13:36:25.646Z,19.61
2023-04-27T13:38:51.914Z,19.82
2023-04-27T13:41:18.185Z,20.17
2023-04-27T13:43:44.467Z,20.55
2023-04-27T13:46:10.785Z,20.50
2023-04-27T13:48:37.062Z,20.46
2023-04-27T13:51:03.323Z,20.75
2023-04-27T13:53:29.546Z,20.64
2023-04-27T13:55:55.840Z,21.08
2023-04-27T13:58:24.388Z,21.00
2023-04-27T14:00:52.013Z,20.65
2023-04-27T14:03:20.286Z,20.62
2023-04-27T14:05:46.774Z,20.63
2023-04-27T14:08:13.016Z,20.69
2023-04-27T14:10:39.311Z,20.29
2023-04-27T14:13:05.613Z,20.04
2023-04-27T14:15:31.891Z,19.72
2023-04-27T14:17:58.203Z,20.21
2023-04-27T14:20:24.503Z,20.46
2023-04-27T14:22:50.921Z,20.21
2023-04-27T14:25:17.266Z,20.09
2023-04-27T14:27:43.517Z,20.14
2023-04-27T14:30:09.757Z,19.69
2023-04-27T14:32:36.456Z,19.68
2023-04-27T14:35:02.786Z,19.65
2023-04-27T14:37:29.146Z,19.54
2023-04-27T14:39:55.413Z,19.28
2023-04-27T14:42:21.659Z,19.26
2023-04-27T14:44:49.648Z,19.28
2023-04-27T14:47:16.084Z,19.26
2023-04-27T14:49:42.398Z,19.19
2023-04-27T14:52:08.654Z,18.95
2023-04-27T14:54:34.894Z,18.80
2023-04-27T14:57:01.170Z,18.83
2023-04-27T14:59:27.450Z,18.95
2023-04-27T15:01:53.774Z,18.75
2023-04-27T15:04:20.228Z,18.84
2023-04-27T15:06:46.599Z,18.76
2023-04-27T15:09:12.987Z,18.95
2023-04-27T15:11:39.340Z,18.80
2023-04-27T15:14:05.599Z,18.77
2023-04-27T15:16:33.172Z,18.29
2023-04-27T15:18:59.491Z,18.63
2023-04-27T15:21:25.748Z,18.68
2023-04-27T15:23:52.010Z,18.82
2023-04-27T15:26:18.246Z,19.01
2023-04-27T15:28:44.520Z,18.89
2023-04-27T15:31:10.823Z,19.06
2023-04-27T15:33:37.129Z,19.02
2023-04-27T15:36:03.362Z,19.12
2023-04-27T15:38:29.627Z,19.23
2023-04-27T15:40:55.863Z,19.47
2023-04-27T15:43:22.568Z,19.18
2023-04-27T15:45:49.216Z,19.24
2023-04-27T15:48:15.618Z,19.26
2023-04-27T15:50:41.918Z,19.28
2023-04-27T15:53:08.150Z,19.17
2023-04-27T15:55:34.418Z,19.21
2023-04-27T15:58:00.665Z,19.29
2023-04-27T16:00:26.903Z,19.25
2023-04-27T16:02:53.415Z,19.34
2023-04-27T16:05:19.822Z,19.48
2023-04-27T16:07:46.073Z,18.83
2023-04-27T16:10:12.547Z,18.83
2023-04-27T16:12:38.846Z,19.08
2023-04-27T16:15:05.104Z,18.93
2023-04-27T16:17:31.416Z,18.98
2023-04-27T16:19:57.801Z,19.13
2023-04-27T16:22:24.044Z,19.03
2023-04-27T16:24:50.295Z,18.83
2023-04-27T16:27:16.527Z,18.67
2023-04-27T16:29:42.783Z,18.81
2023-04-27T16:32:09.120Z,18.82
2023-04-27T16:34:35.421Z,18.70
2023-04-27T16:37:01.678Z,18.66
2023-04-27T16:39:27.971Z,18.49
2023-04-27T16:41:54.219Z,18.59
2023-04-27T16:44:20.489Z,18.59
2023-04-27T16:46:46.770Z,18.76
2023-04-27T16:49:13.164Z,18.86
2023-04-27T16:51:39.538Z,18.81
2023-04-27T16:54:05.836Z,18.51
2023-04-27T16:56:32.080Z,18.46
2023-04-27T16:58:58.339Z,18.07
2023-04-27T17:01:24.622Z,17.89
2023-04-27T17:03:51.069Z,17.90
2023-04-27T17:06:18.135Z,17.85
2023-04-27T17:08:44.404Z,17.82
2023-04-27T17:11:10.670Z,17.69
2023-04-27T17:13:36.967Z,17.62
2023-04-27T17:16:03.503Z,17.54
2023-04-27T17:18:31.580Z,17.37
2023-04-27T17:20:57.806Z,17.28
2023-04-27T17:23:24.071Z,17.25
2023-04-27T17:25:50.312Z,17.19
2023-04-27T17:28:16.598Z,17.14
2023-04-27T17:30:42.871Z,17.03
2023-04-27T17:33:09.175Z,16.91
2023-04-27T17:35:35.463Z,16.48
2023-04-27T17:38:01.750Z,16.30
2023-04-27T17:40:28.064Z,16.15
2023-04-27T17:42:54.304Z,16.12
2023-04-27T17:45:20.608Z,16.06
2023-04-27T17:47:46.969Z,16.00
2023-04-27T17:50:13.249Z,15.92
2023-04-27T17:52:39.499Z,15.81
2023-04-27T17:55:06.650Z,15.77
2023-04-27T17:57:32.978Z,15.65
2023-04-27T17:59:59.368Z,15.51
2023-04-27T18:02:25.722Z,15.40
2023-04-27T18:04:52.056Z,15.26
2023-04-27T18:07:18.411Z,14.94
2023-04-27T18:09:44.656Z,14.89
2023-04-27T18:12:11.116Z,14.91
2023-04-27T18:14:37.604Z,14.83
2023-04-27T18:17:03.890Z,14.74
2023-04-27T18:19:30.171Z,14.73
2023-04-27T18:21:56.463Z,14.65
2023-04-27T18:24:22.717Z,14.52
2023-04-27T18:26:48.982Z,14.49
2023-04-27T18:29:15.338Z,14.42
2023-04-27T18:31:41.918Z,14.30
2023-04-27T18:34:08.208Z,14.18
2023-04-27T18:36:34.452Z,14.03
2023-04-27T18:39:00.755Z,14.08
2023-04-27T18:41:27.024Z,14.08
2023-04-27T18:43:53.301Z,14.12
2023-04-27T18:46:19.588Z,14.13
2023-04-27T18:48:45.887Z,14.10
2023-04-27T18:51:12.169Z,14.21
2023-04-27T18:53:38.426Z,14.12
2023-04-27T18:56:05.242Z,14.09
2023-04-27T18:58:32.035Z,14.12
2023-04-27T19:00:58.312Z,14.07
2023-04-27T19:03:24.814Z,13.93
2023-04-27T19:05:51.317Z,13.90
2023-04-27T19:08:17.566Z,13.92
2023-04-27T19:10:43.828Z,13.84
2023-04-27T19:13:10.084Z,13.82
2023-04-27T19:15:36.365Z,13.80
2023-04-27T19:18:10.462Z,13.72
2023-04-27T19:20:37.884Z,13.69
2023-04-27T19:23:04.184Z,13.71
2023-04-27T19:25:30.471Z,13.65
2023-04-27T19:27:56.757Z,13.64
2023-04-27T19:30:23.019Z,13.72
2023-04-27T19:32:49.328Z,13.63
2023-04-27T19:35:15.661Z,13.71
2023-04-27T19:37:41.942Z,13.81
2023-04-27T19:40:08.191Z,13.87
2023-04-27T19:42:34.459Z,13.85
2023-04-27T19:45:00.736Z,13.83
2023-04-27T19:47:27.019Z,13.89
2023-04-27T19:49:53.368Z,13.87
2023-04-27T19:52:19.644Z,13.85
2023-04-27T19:54:45.968Z,13.75
2023-04-27T19:57:12.221Z,13.82
2023-04-27T19:59:38.488Z,13.76
2023-04-27T20:02:04.839Z,13.75
2023-04-27T20:04:31.331Z,13.75
2023-04-27T20:06:57.715Z,13.66
2023-04-27T20:09:24.013Z,13.72
2023-04-27T20:11:50.286Z,13.71
2023-04-27T20:14:16.792Z,13.55
2023-04-27T20:16:43.347Z,13.55
2023-04-27T20:19:09.660Z,13.60
2023-04-27T20:21:35.889Z,13.55
2023-04-27T20:24:02.154Z,13.55
2023-04-27T20:26:28.397Z,13.57
2023-04-27T20:28:54.665Z,13.65
2023-04-27T20:31:20.991Z,13.57
2023-04-27T20:33:47.244Z,13.60
2023-04-27T20:36:18.006Z,13.53
2023-04-27T20:38:44.646Z,13.52
2023-04-27T20:41:10.924Z,13.50
2023-04-27T20:43:37.330Z,13.44
2023-04-27T20:46:03.622Z,13.38
2023-04-27T20:48:29.898Z,13.38
2023-04-27T20:50:56.184Z,13.42
2023-04-27T20:53:22.463Z,13.50
2023-04-27T20:55:48.773Z,13.52
2023-04-27T20:58:15.079Z,13.62
2023-04-27T21:00:41.378Z,13.60
2023-04-27T21:03:07.776Z,13.62
2023-04-27T21:05:34.086Z,13.68
2023-04-27T21:08:00.330Z,13.65
2023-04-27T21:10:26.585Z,13.71
2023-04-27T21:12:52.825Z,13.67
2023-04-27T21:15:19.055Z,13.77
2023-04-27T21:17:45.485Z,13.72
2023-04-27T21:20:11.788Z,13.76
2023-04-27T21:22:38.039Z,13.82
2023-04-27T21:25:04.278Z,13.78
2023-04-27T21:27:30.515Z,13.79
2023-04-27T21:29:56.770Z,13.80
2023-04-27T21:32:23.009Z,13.72
2023-04-27T21:34:49.243Z,13.70
2023-04-27T21:37:15.636Z,13.75
2023-04-27T21:39:41.897Z,13.86
2023-04-27T21:42:08.145Z,13.85
2023-04-27T21:44:34.384Z,13.82
2023-04-27T21:47:00.683Z,13.75
2023-04-27T21:49:27.092Z,13.71
2023-04-27T21:51:53.342Z,13.69
2023-04-27T21:54:19.607Z,13.62
2023-04-27T21:56:45.895Z,13.62
2023-04-27T21:59:12.219Z,13.54
2023-04-27T22:01:38.459Z,13.54
2023-04-27T22:04:04.943Z,13.48
2023-04-27T22:06:31.378Z,13.37
2023-04-27T22:08:57.795Z,13.30
2023-04-27T22:11:24.235Z,13.23
2023-04-27T22:13:50.483Z,13.17
2023-04-27T22:16:16.803Z,13.22
2023-04-27T22:18:43.115Z,13.16
2023-04-27T22:21:09.410Z,13.12
2023-04-27T22:23:35.700Z,13.25
2023-04-27T22:26:03.818Z,13.16
2023-04-27T22:28:30.123Z,13.24
2023-04-27T22:30:56.387Z,13.36
2023-04-27T22:33:22.680Z,13.33
2023-04-27T22:35:48.961Z,13.34
2023-04-27T22:38:15.256Z,13.42
2023-04-27T22:40:41.544Z,13.50
2023-04-27T22:43:07.792Z,13.54
2023-04-27T22:45:34.918Z,13.62
2023-04-27T22:48:02.082Z,13.66
2023-04-27T22:50:28.413Z,13.71
2023-04-27T22:52:54.670Z,13.82
2023-04-27T22:55:20.930Z,13.83
2023-04-27T22:57:47.193Z,13.73
2023-04-27T23:00:13.454Z,13.77
2023-04-27T23:02:39.862Z,13.76
2023-04-27T23:05:06.254Z,13.64
2023-04-27T23:07:32.508Z,13.58
2023-04-27T23:09:58.761Z,13.60
2023-04-27T23:12:25.034Z,13.60
2023-04-27T23:14:51.287Z,13.60
2023-04-27T23:17:17.625Z,13.61
2023-04-27T23:19:44.068Z,13.53
2023-04-27T23:22:10.334Z,13.48
2023-04-27T23:24:36.587Z,13.39
2023-04-27T23:27:02.852Z,13.28
2023-04-27T23:29:29.136Z,13.29
2023-04-27T23:31:55.462Z,13.22
2023-04-27T23:34:21.721Z,13.24
2023-04-27T23:36:48.050Z,13.17
2023-04-27T23:39:14.282Z,13.10
2023-04-27T23:41:40.541Z,13.05
2023-04-27T23:44:06.797Z,13.00
2023-04-27T23:46:33.107Z,12.89
2023-04-27T23:48:59.393Z,12.77
2023-04-27T23:51:25.627Z,12.65
2023-04-27T23:53:51.901Z,12.57
2023-04-27T23:56:18.221Z,12.53
2023-04-27T23:58:44.458Z,12.45
